Time;durP1;ratioP1;P1;durP2;ratioP2;P2;SDS_P1;SDS_P2;PMS_P1;PMS_P2;Temp;Humidity;BMP_temperature;BMP_pressure;BME280_temperature;BME280_humidity;BME280_pressure;Samples;Min_cycle;Max_cycle;Signal;HPM_P1;HPM_P2
2022/06/27 00:02:04;;;;;;;13.30;12.30;;;23.70;99.90;;;;;;5032799;28;20479;-73
2022/06/27 00:04:32;;;;;;;14.10;12.83;;;23.80;99.90;;;;;;5033545;28;20451;-73
2022/06/27 00:06:58;;;;;;;14.87;13.70;;;23.70;99.90;;;;;;5033138;28;20446;-73
2022/06/27 00:09:25;;;;;;;14.10;13.00;;;23.70;99.90;;;;;;5033082;28;20490;-75
2022/06/27 00:11:52;;;;;;;14.90;13.60;;;23.70;99.90;;;;;;5032795;28;20973;-73
2022/06/27 00:14:19;;;;;;;13.90;12.83;;;23.70;99.90;;;;;;5034244;28;20446;-74
2022/06/27 00:16:46;;;;;;;13.80;12.60;;;23.60;99.90;;;;;;5034209;28;20450;-75
2022/06/27 00:19:12;;;;;;;13.93;12.93;;;23.50;99.90;;;;;;5033666;28;20443;-74
2022/06/27 00:21:40;;;;;;;13.97;12.77;;;23.40;99.90;;;;;;5032651;28;20993;-73
2022/06/27 00:24:07;;;;;;;14.23;13.10;;;23.40;99.90;;;;;;5032761;28;20450;-74
2022/06/27 00:26:34;;;;;;;13.57;12.47;;;23.30;99.90;;;;;;5032367;28;20447;-73
2022/06/27 00:29:01;;;;;;;13.80;12.63;;;23.30;99.90;;;;;;5032479;28;20482;-73
2022/06/27 00:31:27;;;;;;;14.87;13.50;;;23.30;99.90;;;;;;5032623;28;20466;-73
2022/06/27 00:33:54;;;;;;;14.90;13.70;;;23.20;99.90;;;;;;5032506;28;20443;-74
2022/06/27 00:36:21;;;;;;;13.93;12.67;;;23.20;99.90;;;;;;5032348;28;20454;-74
2022/06/27 00:38:49;;;;;;;14.90;13.60;;;23.20;99.90;;;;;;5032404;28;20443;-74
2022/06/27 00:41:15;;;;;;;13.17;12.00;;;23.10;99.90;;;;;;5032643;28;20469;-74
2022/06/27 00:43:44;;;;;;;14.50;13.40;;;23.10;99.90;;;;;;5032503;28;20449;-73
2022/06/27 00:46:10;;;;;;;15.37;13.90;;;23.00;99.90;;;;;;5032389;28;20482;-74
2022/06/27 00:48:37;;;;;;;13.93;12.90;;;23.10;99.90;;;;;;5032182;28;21031;-74
2022/06/27 00:51:04;;;;;;;15.47;14.30;;;23.00;99.90;;;;;;5032523;28;20446;-74
2022/06/27 00:53:32;;;;;;;14.90;13.80;;;22.90;99.90;;;;;;5032455;28;20485;-74
2022/06/27 00:56:01;;;;;;;15.97;14.40;;;22.90;99.90;;;;;;5032055;28;20969;-73
2022/06/27 00:58:27;;;;;;;16.20;14.70;;;22.90;99.90;;;;;;5032952;28;20454;-73
2022/06/27 01:00:54;;;;;;;15.13;13.93;;;22.90;99.90;;;;;;5031861;28;20450;-73
2022/06/27 01:03:21;;;;;;;14.83;13.70;;;22.90;99.90;;;;;;5032606;28;20450;-74
2022/06/27 01:05:52;;;;;;;14.97;13.77;;;22.80;99.90;;;;;;5032476;28;20810;-74
2022/06/27 01:08:19;;;;;;;16.07;14.77;;;22.70;99.90;;;;;;5032776;28;20471;-74
2022/06/27 01:10:45;;;;;;;15.67;14.13;;;22.50;99.90;;;;;;5032529;28;20508;-74
2022/06/27 01:13:14;;;;;;;16.47;15.17;;;22.70;99.90;;;;;;5032896;28;20462;-74
2022/06/27 01:15:41;;;;;;;15.93;14.70;;;22.70;99.90;;;;;;5033107;28;20451;-73
2022/06/27 01:18:09;;;;;;;15.73;14.53;;;22.70;99.90;;;;;;5032583;28;20450;-73
2022/06/27 01:20:36;;;;;;;16.30;14.80;;;22.60;99.90;;;;;;5031985;28;20442;-73
2022/06/27 01:23:04;;;;;;;14.63;13.37;;;22.70;99.90;;;;;;5031925;28;20470;-73
2022/06/27 01:25:32;;;;;;;16.37;15.13;;;22.70;99.90;;;;;;5035446;28;20537;-73
2022/06/27 01:27:59;;;;;;;16.10;14.70;;;22.50;99.90;;;;;;5035695;28;20479;-73
2022/06/27 01:30:25;;;;;;;15.67;14.47;;;22.70;99.90;;;;;;5035569;28;20486;-74
2022/06/27 01:32:52;;;;;;;17.00;15.67;;;22.70;99.90;;;;;;5035137;28;20458;-73
2022/06/27 01:35:19;;;;;;;16.77;15.47;;;22.70;99.90;;;;;;5035024;28;20942;-74
2022/06/27 01:37:46;;;;;;;15.20;14.00;;;22.60;99.90;;;;;;5035365;28;20877;-73
2022/06/27 01:40:15;;;;;;;15.90;14.50;;;22.60;99.90;;;;;;5035371;28;20853;-74
2022/06/27 01:42:42;;;;;;;15.47;14.23;;;22.50;99.90;;;;;;5035233;28;20847;-73
2022/06/27 01:45:10;;;;;;;16.53;15.13;;;22.50;99.90;;;;;;5035219;28;20446;-73
2022/06/27 01:47:37;;;;;;;16.27;14.97;;;22.40;99.90;;;;;;5035587;28;20450;-73
2022/06/27 01:50:05;;;;;;;19.77;15.40;;;22.40;99.90;;;;;;5035083;28;20848;-74
2022/06/27 01:52:32;;;;;;;16.20;14.90;;;22.50;99.90;;;;;;5035018;28;20466;-73
2022/06/27 01:54:59;;;;;;;16.87;15.37;;;22.50;99.90;;;;;;5034799;28;20957;-73
2022/06/27 01:57:27;;;;;;;16.40;15.20;;;22.50;99.90;;;;;;5034776;28;20455;-74
2022/06/27 01:59:54;;;;;;;17.53;16.10;;;22.50;99.90;;;;;;5034654;28;20997;-74
2022/06/27 02:02:21;;;;;;;17.43;15.97;;;22.60;99.90;;;;;;5057553;22;20607;-73
2022/06/27 02:04:48;;;;;;;16.87;15.57;;;22.70;99.90;;;;;;5055258;28;20437;-73
2022/06/27 02:07:17;;;;;;;16.17;14.87;;;22.70;99.90;;;;;;5055337;28;20445;-73
2022/06/27 02:09:45;;;;;;;16.00;14.70;;;22.70;99.90;;;;;;5055210;28;20493;-73
2022/06/27 02:12:22;;;;;;;15.70;14.20;;;22.70;99.90;;;;;;5055257;28;20477;-73
2022/06/27 02:14:51;;;;;;;17.13;15.83;;;22.70;99.90;;;;;;5055183;28;20528;-74
2022/06/27 02:17:19;;;;;;;17.10;15.37;;;22.70;99.90;;;;;;5055022;28;20959;-74
2022/06/27 02:19:46;;;;;;;15.50;14.10;;;22.70;99.90;;;;;;5055120;28;20438;-73
2022/06/27 02:22:14;;;;;;;15.27;14.00;;;22.70;99.90;;;;;;5055113;28;20484;-73
2022/06/27 02:24:41;;;;;;;16.53;15.10;;;22.60;99.90;;;;;;5054546;28;20455;-74
2022/06/27 02:27:09;;;;;;;15.47;14.17;;;22.60;99.90;;;;;;5054609;28;20936;-73
2022/06/27 02:29:36;;;;;;;16.33;15.03;;;22.60;99.90;;;;;;5054752;28;20885;-74
2022/06/27 02:32:06;;;;;;;16.67;15.27;;;22.50;99.90;;;;;;5054670;28;20461;-73
2022/06/27 02:34:33;;;;;;;16.50;14.90;;;22.50;99.90;;;;;;5054474;28;20448;-74
2022/06/27 02:37:00;;;;;;;16.87;15.57;;;22.50;99.90;;;;;;5055313;28;20449;-74
2022/06/27 02:39:31;;;;;;;16.67;15.33;;;22.40;99.90;;;;;;5055495;28;20453;-74
2022/06/27 02:42:00;;;;;;;16.47;15.17;;;22.40;99.90;;;;;;5054637;28;20865;-73
2022/06/27 02:44:27;;;;;;;17.40;16.00;;;22.30;99.90;;;;;;5054548;28;20825;-73
2022/06/27 02:46:54;;;;;;;18.37;16.97;;;22.20;99.90;;;;;;5054421;28;20446;-73
2022/06/27 02:49:22;;;;;;;17.97;16.37;;;22.20;99.90;;;;;;5054066;28;21031;-73
2022/06/27 02:51:57;;;;;;;18.10;16.50;;;22.30;99.90;;;;;;5054292;28;20465;-73
2022/06/27 02:54:31;;;;;;;17.20;15.60;;;22.30;99.90;;;;;;5054416;28;20544;-74
2022/06/27 02:57:03;;;;;;;18.07;16.57;;;22.30;99.90;;;;;;5054280;28;20440;-73
2022/06/27 02:59:35;;;;;;;18.17;16.80;;;22.30;99.90;;;;;;5054282;28;20426;-73
2022/06/27 03:02:02;;;;;;;17.37;15.83;;;22.20;99.90;;;;;;5059135;28;20578;-73
2022/06/27 03:04:30;;;;;;;17.30;15.90;;;22.10;99.90;;;;;;5074105;28;20524;-73
2022/06/27 03:06:57;;;;;;;18.27;16.77;;;22.20;99.90;;;;;;5074097;28;20450;-73
2022/06/27 03:09:24;;;;;;;17.00;15.70;;;22.20;99.90;;;;;;5073619;28;20484;-73
2022/06/27 03:11:50;;;;;;;18.37;16.73;;;22.20;99.90;;;;;;5073879;28;20833;-73
2022/06/27 03:14:18;;;;;;;18.27;16.83;;;22.20;99.90;;;;;;5073791;28;20453;-73
2022/06/27 03:16:45;;;;;;;17.97;16.50;;;22.30;99.90;;;;;;5074068;28;20445;-73
2022/06/27 03:19:12;;;;;;;19.27;17.87;;;22.30;99.90;;;;;;5073550;28;20479;-73
2022/06/27 03:21:40;;;;;;;17.47;16.13;;;22.30;99.90;;;;;;5073524;28;20813;-73
2022/06/27 03:24:07;;;;;;;19.83;17.80;;;22.30;99.90;;;;;;5073632;28;20821;-73
2022/06/27 03:26:34;;;;;;;18.13;16.63;;;22.20;99.90;;;;;;5073583;28;20816;-73
2022/06/27 03:29:02;;;;;;;18.47;16.63;;;22.20;99.90;;;;;;5073472;28;20502;-74
2022/06/27 03:31:29;;;;;;;18.10;16.70;;;22.00;99.90;;;;;;5073133;28;21039;-73
2022/06/27 03:33:56;;;;;;;18.77;17.17;;;22.30;99.90;;;;;;5073545;28;20523;-73
2022/06/27 03:36:22;;;;;;;19.57;18.03;;;22.20;99.90;;;;;;5073553;28;20890;-73
2022/06/27 03:38:50;;;;;;;18.60;17.00;;;22.30;99.90;;;;;;5073243;28;20457;-73
2022/06/27 03:41:18;;;;;;;19.57;17.80;;;22.50;99.90;;;;;;5073330;28;20444;-73
2022/06/27 03:43:45;;;;;;;18.90;17.30;;;22.30;99.90;;;;;;5073321;28;20472;-73
2022/06/27 03:46:12;;;;;;;18.80;17.30;;;22.30;99.90;;;;;;5072949;28;20445;-73
2022/06/27 03:51:23;;;;;;;20.43;18.63;;;22.30;99.90;;;;;;5073046;28;20970;-73
2022/06/27 03:53:51;;;;;;;20.60;18.90;;;22.30;99.90;;;;;;5073326;28;20451;-73
2022/06/27 03:56:17;;;;;;;20.90;19.20;;;22.40;99.90;;;;;;5073224;28;20445;-73
2022/06/27 03:58:44;;;;;;;21.50;19.50;;;22.40;99.90;;;;;;5072966;28;20453;-73
2022/06/27 04:01:11;;;;;;;21.83;19.60;;;22.40;99.90;;;;;;5073084;28;20441;-73
2022/06/27 04:03:38;;;;;;;21.03;19.10;;;22.40;99.90;;;;;;5072742;28;20472;-73
2022/06/27 04:06:04;;;;;;;19.20;17.50;;;22.50;99.90;;;;;;5072813;28;20441;-73
2022/06/27 04:08:31;;;;;;;20.60;19.00;;;22.50;99.90;;;;;;5073071;28;20504;-74
2022/06/27 04:11:00;;;;;;;20.07;18.50;;;22.60;99.90;;;;;;5072965;28;20487;-73
2022/06/27 04:13:26;;;;;;;22.27;20.33;;;22.60;99.90;;;;;;5072989;28;20465;-73
2022/06/27 04:15:53;;;;;;;20.37;18.77;;;22.70;99.90;;;;;;5073114;28;20449;-73
2022/06/27 04:18:20;;;;;;;19.57;17.80;;;22.70;99.90;;;;;;5073083;28;20816;-73
2022/06/27 04:20:46;;;;;;;20.17;18.57;;;22.70;99.90;;;;;;5073044;28;20445;-73
2022/06/27 04:23:13;;;;;;;20.40;18.60;;;22.80;99.90;;;;;;5072872;28;20473;-73
2022/06/27 04:25:42;;;;;;;20.30;18.50;;;22.80;99.90;;;;;;5072876;28;20445;-73
2022/06/27 04:28:10;;;;;;;20.23;18.53;;;22.80;99.90;;;;;;5073342;28;20536;-73
2022/06/27 04:30:37;;;;;;;21.40;19.60;;;22.90;99.90;;;;;;5072529;28;20991;-73
2022/06/27 04:33:04;;;;;;;20.30;18.50;;;22.90;99.90;;;;;;5072841;28;20473;-74
2022/06/27 04:35:31;;;;;;;18.63;17.13;;;22.90;99.90;;;;;;5072740;28;20918;-74
2022/06/27 04:37:58;;;;;;;20.10;18.40;;;22.90;99.90;;;;;;5072826;28;20471;-73
2022/06/27 04:40:25;;;;;;;21.13;18.93;;;23.00;99.90;;;;;;5072573;28;21035;-74
2022/06/27 04:42:53;;;;;;;20.90;18.97;;;23.00;99.90;;;;;;5072766;28;20491;-74
2022/06/27 04:45:21;;;;;;;20.60;19.00;;;23.10;99.90;;;;;;5072796;28;20460;-74
2022/06/27 04:47:48;;;;;;;20.47;18.63;;;23.10;99.90;;;;;;5073642;28;20448;-73
2022/06/27 04:50:17;;;;;;;18.93;17.27;;;23.10;99.90;;;;;;5072679;28;20477;-74
2022/06/27 04:52:43;;;;;;;20.90;19.13;;;23.20;99.90;;;;;;5072730;28;20504;-73
2022/06/27 04:55:12;;;;;;;19.13;17.57;;;23.30;99.90;;;;;;5072747;28;20869;-74
2022/06/27 04:57:42;;;;;;;19.60;17.90;;;23.30;99.90;;;;;;5072583;28;20448;-74
2022/06/27 05:00:11;;;;;;;20.53;18.43;;;23.40;99.90;;;;;;5075940;28;20455;-74
2022/06/27 05:02:39;;;;;;;19.53;18.03;;;23.40;99.90;;;;;;5076078;28;20484;-74
2022/06/27 05:05:07;;;;;;;16.60;15.23;;;23.60;99.90;;;;;;5076312;28;20451;-73
2022/06/27 05:07:34;;;;;;;18.53;16.70;;;23.60;99.90;;;;;;5076477;28;20451;-73
2022/06/27 05:10:02;;;;;;;18.17;16.60;;;23.70;99.90;;;;;;5076200;28;20491;-73
2022/06/27 05:12:29;;;;;;;17.03;15.73;;;23.80;99.90;;;;;;5075649;28;20469;-73
2022/06/27 05:14:56;;;;;;;20.03;18.23;;;23.80;99.90;;;;;;5076009;28;20444;-74
2022/06/27 05:17:24;;;;;;;20.47;18.77;;;24.00;99.90;;;;;;5075598;28;20448;-73
2022/06/27 05:19:52;;;;;;;17.73;16.13;;;24.00;99.90;;;;;;5075633;28;20474;-73
2022/06/27 05:22:19;;;;;;;17.50;16.20;;;24.00;99.90;;;;;;5076074;28;20464;-73
2022/06/27 05:24:48;;;;;;;17.50;16.00;;;24.10;99.90;;;;;;5076144;28;20444;-73
2022/06/27 05:27:15;;;;;;;18.27;16.87;;;24.20;99.90;;;;;;5075848;28;20532;-73
2022/06/27 05:29:42;;;;;;;18.10;16.60;;;24.30;99.90;;;;;;5075444;28;20437;-74
2022/06/27 05:32:09;;;;;;;17.73;16.30;;;24.30;99.90;;;;;;5075671;28;20465;-74
2022/06/27 05:34:36;;;;;;;17.70;16.30;;;24.30;99.90;;;;;;5075429;28;20556;-73
2022/06/27 05:37:05;;;;;;;18.53;16.80;;;24.40;99.90;;;;;;5075647;28;20453;-74
2022/06/27 05:39:33;;;;;;;19.60;17.77;;;24.50;99.90;;;;;;5075459;28;20531;-74
2022/06/27 05:41:59;;;;;;;18.07;15.40;;;24.60;99.90;;;;;;5075571;28;20463;-73
2022/06/27 05:44:27;;;;;;;15.10;13.87;;;24.60;99.90;;;;;;5075566;28;20451;-73
2022/06/27 05:46:55;;;;;;;17.20;15.63;;;24.70;99.90;;;;;;5075660;28;20838;-73
2022/06/27 05:49:22;;;;;;;15.27;14.17;;;24.80;99.90;;;;;;5076765;28;20475;-73
2022/06/27 05:51:49;;;;;;;18.87;17.03;;;24.90;99.90;;;;;;5075274;28;20496;-74
2022/06/27 05:54:21;;;;;;;16.83;15.40;;;25.00;99.90;;;;;;5075379;28;20456;-73
2022/06/27 05:56:50;;;;;;;16.70;15.40;;;25.10;99.90;;;;;;5075101;28;20477;-73
2022/06/27 05:59:17;;;;;;;15.67;14.40;;;25.20;99.90;;;;;;5075193;28;20457;-74
2022/06/27 06:01:45;;;;;;;14.90;13.70;;;25.20;99.90;;;;;;5074652;28;20547;-72
2022/06/27 06:04:13;;;;;;;15.27;14.10;;;25.30;99.90;;;;;;5075071;28;20447;-72
2022/06/27 06:06:41;;;;;;;16.07;14.77;;;25.40;99.90;;;;;;5074562;28;20453;-72
2022/06/27 06:09:08;;;;;;;17.50;15.70;;;25.50;99.90;;;;;;5074551;28;20519;-73
2022/06/27 06:11:36;;;;;;;18.17;16.77;;;25.50;99.90;;;;;;5074328;28;20484;-72
2022/06/27 06:14:04;;;;;;;18.67;16.73;;;25.60;99.90;;;;;;5074868;28;20482;-72
2022/06/27 06:16:31;;;;;;;15.10;13.90;;;25.60;99.90;;;;;;5074800;28;20449;-75
2022/06/27 06:18:59;;;;;;;15.90;14.60;;;25.70;99.90;;;;;;5074813;28;20455;-73
2022/06/27 06:21:26;;;;;;;16.80;15.50;;;26.00;99.90;;;;;;5074757;28;20784;-73
2022/06/27 06:23:54;;;;;;;16.63;15.20;;;25.80;99.90;;;;;;5074739;28;20566;-73
2022/06/27 06:26:21;;;;;;;16.20;14.70;;;25.80;99.90;;;;;;5075020;28;20445;-75
2022/06/27 06:28:50;;;;;;;14.83;13.47;;;25.80;99.90;;;;;;5074321;28;20471;-73
2022/06/27 06:31:22;;;;;;;14.87;13.57;;;26.10;99.90;;;;;;5074441;28;20481;-74
2022/06/27 06:33:50;;;;;;;14.67;13.37;;;26.00;99.90;;;;;;5074575;28;20432;-73
2022/06/27 06:36:18;;;;;;;16.23;14.17;;;26.10;99.90;;;;;;5074393;28;20480;-73
2022/06/27 06:38:46;;;;;;;14.47;13.33;;;26.10;99.90;;;;;;5074280;28;20448;-73
2022/06/27 06:41:13;;;;;;;14.40;13.40;;;26.20;99.90;;;;;;5074469;28;20445;-73
2022/06/27 06:43:39;;;;;;;18.13;13.47;;;26.30;99.90;;;;;;5073961;28;20477;-73
2022/06/27 06:46:09;;;;;;;13.70;12.70;;;26.30;99.90;;;;;;5074110;28;20586;-73
2022/06/27 06:48:37;;;;;;;16.30;15.10;;;26.40;99.90;;;;;;5074396;28;20433;-73
2022/06/27 06:51:04;;;;;;;15.70;14.23;;;26.50;99.90;;;;;;5074061;28;20481;-73
2022/06/27 06:53:30;;;;;;;16.20;14.90;;;26.50;99.90;;;;;;5073629;28;21000;-73
2022/06/27 06:55:57;;;;;;;15.50;14.20;;;26.60;99.90;;;;;;5073850;28;20448;-73
2022/06/27 06:58:25;;;;;;;15.77;14.23;;;26.70;99.90;;;;;;5074398;28;20936;-73
2022/06/27 07:00:52;;;;;;;15.50;14.10;;;26.70;99.90;;;;;;5074590;28;20460;-76
2022/06/27 07:03:20;;;;;;;16.80;15.30;;;26.80;99.90;;;;;;5073575;28;20532;-75
2022/06/27 07:05:47;;;;;;;14.80;13.70;;;26.90;99.90;;;;;;5073585;28;20458;-73
2022/06/27 07:08:14;;;;;;;26.10;23.30;;;26.90;99.90;;;;;;5073474;28;20436;-72
2022/06/27 07:10:41;;;;;;;23.17;20.83;;;27.00;99.90;;;;;;5073814;28;20491;-74
2022/06/27 07:13:08;;;;;;;15.97;14.57;;;27.10;99.90;;;;;;5073760;28;20561;-72
2022/06/27 07:15:35;;;;;;;13.40;12.30;;;27.10;99.90;;;;;;5074306;28;20800;-74
2022/06/27 07:18:03;;;;;;;13.83;12.43;;;27.20;99.90;;;;;;5073516;28;20449;-72
2022/06/27 07:20:32;;;;;;;12.63;11.73;;;27.20;99.90;;;;;;5073243;28;20502;-73
2022/06/27 07:22:58;;;;;;;13.10;11.87;;;27.30;99.90;;;;;;5073399;28;20476;-73
2022/06/27 07:25:26;;;;;;;12.30;11.40;;;27.40;99.90;;;;;;5073207;28;20480;-74
2022/06/27 07:27:55;;;;;;;13.30;12.20;;;27.40;99.90;;;;;;5073565;28;20452;-74
2022/06/27 07:30:22;;;;;;;11.77;10.77;;;27.50;99.90;;;;;;5072970;28;21031;-73
2022/06/27 07:32:49;;;;;;;10.87;9.93;;;27.70;99.90;;;;;;5073014;28;20935;-73
2022/06/27 07:35:17;;;;;;;11.10;10.10;;;27.70;99.90;;;;;;5072866;28;20453;-75
2022/06/27 07:37:48;;;;;;;11.43;10.53;;;27.70;99.90;;;;;;5073018;28;20943;-74
2022/06/27 07:40:17;;;;;;;13.07;11.97;;;27.80;99.90;;;;;;5073382;28;20461;-73
2022/06/27 07:42:44;;;;;;;12.17;11.10;;;27.80;99.90;;;;;;5073180;28;20563;-73
2022/06/27 07:45:13;;;;;;;11.90;10.97;;;27.90;99.90;;;;;;5073320;28;20449;-73
2022/06/27 07:47:40;;;;;;;11.83;10.83;;;28.00;99.90;;;;;;5073171;28;20462;-73
2022/06/27 07:50:08;;;;;;;10.60;9.63;;;28.00;99.90;;;;;;5073309;28;20814;-74
2022/06/27 07:53:11;;;;;;;11.97;10.80;;;28.10;99.90;;;;;;5073153;28;20854;-73
2022/06/27 07:55:23;;;;;;;11.17;10.27;;;27.80;99.90;;;;;;5072605;28;20451;-73
2022/06/27 07:57:52;;;;;;;10.73;9.90;;;28.20;99.90;;;;;;5073322;28;20507;-73
2022/06/27 08:00:19;;;;;;;12.90;10.17;;;28.20;99.90;;;;;;5073138;28;20474;-73
2022/06/27 08:02:46;;;;;;;11.40;10.13;;;28.30;99.90;;;;;;5072654;28;20538;-73
2022/06/27 08:05:13;;;;;;;10.50;8.40;;;28.40;99.90;;;;;;5072912;28;20834;-73
2022/06/27 08:07:39;;;;;;;8.90;7.90;;;28.50;99.90;;;;;;5072867;28;20478;-73
2022/06/27 08:10:07;;;;;;;8.70;8.00;;;28.50;99.90;;;;;;5072904;28;20444;-73
2022/06/27 08:12:36;;;;;;;7.87;7.27;;;28.60;99.90;;;;;;5072594;28;20491;-75
2022/06/27 08:15:03;;;;;;;8.67;7.87;;;28.60;99.90;;;;;;5072821;28;20471;-73
2022/06/27 08:17:29;;;;;;;9.77;8.87;;;28.60;99.90;;;;;;5072699;28;20456;-73
2022/06/27 08:19:57;;;;;;;14.87;9.30;;;28.70;99.90;;;;;;5072474;28;20445;-73
2022/06/27 08:22:24;;;;;;;11.80;8.93;;;28.80;99.90;;;;;;5072727;28;20831;-75
2022/06/27 08:24:51;;;;;;;10.13;9.13;;;28.80;99.90;;;;;;5072817;28;20453;-73
2022/06/27 08:27:18;;;;;;;10.20;9.30;;;28.90;99.90;;;;;;5072809;28;20444;-73
2022/06/27 08:29:46;;;;;;;8.63;8.00;;;29.00;99.90;;;;;;5072511;28;20452;-75
2022/06/27 08:32:13;;;;;;;9.20;8.30;;;29.10;99.90;;;;;;5073096;28;20570;-73
2022/06/27 08:34:39;;;;;;;9.33;8.33;;;29.10;99.90;;;;;;5076559;28;20447;-73
2022/06/27 08:37:07;;;;;;;18.00;16.20;;;29.10;99.90;;;;;;5076549;28;20448;-73
2022/06/27 08:39:34;;;;;;;11.50;10.43;;;29.10;99.90;;;;;;5076591;28;20816;-73
2022/06/27 08:42:01;;;;;;;9.57;8.80;;;29.10;99.90;;;;;;5076349;28;20526;-74
2022/06/27 08:44:31;;;;;;;6.33;5.83;;;29.20;99.90;;;;;;5076322;28;20939;-75
2022/06/27 08:46:59;;;;;;;11.00;10.00;;;29.30;99.90;;;;;;5076537;28;20448;-74
2022/06/27 08:49:26;;;;;;;8.47;7.70;;;29.30;99.90;;;;;;5076442;28;20444;-74
2022/06/27 08:51:55;;;;;;;8.87;7.07;;;29.30;99.90;;;;;;5076164;28;20480;-75
2022/06/27 08:54:22;;;;;;;7.87;7.17;;;29.40;99.90;;;;;;5076036;28;20963;-75
2022/06/27 08:56:50;;;;;;;7.20;6.57;;;29.40;99.90;;;;;;5076341;28;20536;-75
2022/06/27 08:59:18;;;;;;;6.70;6.10;;;29.50;99.90;;;;;;5076294;28;20449;-74
2022/06/27 09:01:45;;;;;;;11.53;7.63;;;29.50;99.90;;;;;;5076062;28;20475;-75
2022/06/27 09:04:13;;;;;;;7.87;6.77;;;29.60;99.90;;;;;;5076266;28;20523;-75
2022/06/27 09:06:55;;;;;;;8.50;6.97;;;29.60;99.90;;;;;;5076059;28;20531;-75
2022/06/27 09:09:24;;;;;;;7.60;7.00;;;29.70;99.90;;;;;;5076208;28;20436;-75
2022/06/27 09:11:53;;;;;;;10.23;7.13;;;29.70;99.90;;;;;;5076059;28;20523;-75
2022/06/27 09:14:34;;;;;;;7.13;6.70;;;29.70;99.90;;;;;;5076484;28;20459;-75
2022/06/27 09:17:04;;;;;;;7.33;6.67;;;29.70;99.90;;;;;;5076121;28;20830;-74
2022/06/27 09:19:52;;;;;;;6.57;6.17;;;29.80;99.90;;;;;;5075967;28;20535;-75
2022/06/27 09:22:20;;;;;;;7.10;6.60;;;29.80;99.90;;;;;;5075823;28;20552;-75
2022/06/27 09:25:02;;;;;;;7.67;7.17;;;29.90;99.90;;;;;;5075905;28;20800;-75
2022/06/27 09:27:40;;;;;;;9.67;7.77;;;29.90;99.90;;;;;;5075740;28;20456;-75
2022/06/27 09:30:23;;;;;;;7.40;6.77;;;30.00;99.90;;;;;;5075885;28;20530;-74
2022/06/27 09:32:52;;;;;;;8.63;7.87;;;30.00;99.90;;;;;;5075641;28;20491;-75
2022/06/27 09:35:25;;;;;;;7.03;6.50;;;30.10;99.90;;;;;;5075923;28;20502;-75
2022/06/27 09:37:53;;;;;;;7.70;7.10;;;30.10;99.90;;;;;;5075779;28;20452;-75
2022/06/27 09:40:24;;;;;;;6.20;5.80;;;29.70;99.90;;;;;;5075858;28;20445;-74
2022/06/27 09:42:54;;;;;;;9.80;8.90;;;30.20;99.90;;;;;;5075691;28;20496;-75
2022/06/27 09:45:24;;;;;;;8.00;7.20;;;30.20;99.90;;;;;;5075013;28;20540;-74
2022/06/27 09:47:56;;;;;;;5.50;5.00;;;30.20;99.90;;;;;;5075491;28;20470;-75
2022/06/27 09:50:24;;;;;;;8.13;7.53;;;30.30;99.90;;;;;;5075435;28;20445;-75
2022/06/27 09:52:52;;;;;;;7.90;7.20;;;30.70;99.90;;;;;;5075289;28;20507;-73
2022/06/27 09:55:22;;;;;;;6.73;5.27;;;30.40;99.90;;;;;;5075360;28;20448;-74
2022/06/27 09:57:48;;;;;;;7.90;7.27;;;30.40;99.90;;;;;;5075190;28;20452;-74
2022/06/27 10:00:16;;;;;;;7.20;6.60;;;30.40;99.90;;;;;;5075301;28;20449;-74
2022/06/27 10:02:43;;;;;;;7.33;6.13;;;30.50;99.90;;;;;;5074988;28;20847;-74
2022/06/27 10:05:11;;;;;;;5.20;4.80;;;30.60;99.90;;;;;;5075290;28;20445;-76
2022/06/27 10:07:42;;;;;;;6.73;6.03;;;30.50;99.90;;;;;;5075267;28;20445;-74
2022/06/27 10:10:09;;;;;;;7.00;6.50;;;30.60;99.90;;;;;;5075654;28;20437;-75
2022/06/27 10:12:36;;;;;;;5.60;5.00;;;30.60;99.90;;;;;;5075052;28;20893;-75
2022/06/27 10:15:22;;;;;;;7.00;6.40;;;30.70;99.90;;;;;;5075050;28;20445;-76
2022/06/27 10:17:57;;;;;;;9.60;8.80;;;30.70;99.90;;;;;;5075325;28;20523;-75
2022/06/27 10:20:32;;;;;;;6.57;6.17;;;30.80;99.90;;;;;;5074719;28;20448;-75
2022/06/27 10:23:26;;;;;;;8.20;4.83;;;30.80;99.90;;;;;;5074742;28;20468;-75
2022/06/27 10:25:53;;;;;;;7.90;5.83;;;30.80;99.90;;;;;;5074806;28;20437;-74
2022/06/27 10:28:22;;;;;;;8.60;6.03;;;30.80;99.90;;;;;;5074425;28;20452;-75
2022/06/27 10:30:51;;;;;;;8.90;6.60;;;30.90;99.90;;;;;;5074554;28;20444;-75
2022/06/27 10:33:38;;;;;;;5.93;5.43;;;31.00;99.90;;;;;;5074448;28;20492;-75
2022/06/27 10:36:13;;;;;;;5.23;4.83;;;31.00;99.90;;;;;;5074864;28;20503;-75
2022/06/27 10:38:55;;;;;;;6.90;3.70;;;31.10;99.90;;;;;;5074709;28;20429;-74
2022/06/27 10:41:42;;;;;;;6.43;4.83;;;31.20;99.90;;;;;;5074599;28;20466;-75
2022/06/27 10:44:32;;;;;;;4.47;4.17;;;31.20;99.90;;;;;;5074567;28;20432;-75
2022/06/27 10:46:59;;;;;;;5.00;4.13;;;31.20;99.90;;;;;;5074513;28;20472;-75
2022/06/27 10:49:27;;;;;;;4.77;4.13;;;31.20;99.90;;;;;;5074082;28;20539;-74
2022/06/27 10:52:32;;;;;;;4.03;3.73;;;31.20;99.90;;;;;;5074338;28;20489;-75
2022/06/27 10:55:00;;;;;;;4.87;4.53;;;31.10;99.90;;;;;;5073844;28;20512;-74
2022/06/27 10:57:42;;;;;;;5.00;4.60;;;31.10;99.90;;;;;;5074324;28;20444;-75
2022/06/27 11:00:10;;;;;;;5.80;5.07;;;31.20;99.90;;;;;;5074218;28;20436;-75
2022/06/27 11:02:37;;;;;;;4.50;4.20;;;31.30;99.90;;;;;;5073968;28;20476;-75
2022/06/27 11:05:05;;;;;;;4.43;4.13;;;31.40;99.90;;;;;;5073911;28;20449;-75
2022/06/27 11:07:31;;;;;;;5.27;4.70;;;31.40;99.90;;;;;;5073658;28;20444;-75
2022/06/27 11:10:00;;;;;;;5.73;5.23;;;31.30;99.90;;;;;;5073682;28;20452;-75
2022/06/27 11:12:35;;;;;;;5.10;4.73;;;31.40;99.90;;;;;;5074054;28;20549;-75
2022/06/27 11:15:03;;;;;;;5.00;4.70;;;31.50;99.90;;;;;;5074198;28;20429;-74
2022/06/27 11:17:38;;;;;;;4.77;4.47;;;31.50;99.90;;;;;;5073732;28;20909;-75
2022/06/27 11:20:17;;;;;;;4.90;4.37;;;31.60;99.90;;;;;;5073788;28;20795;-74
2022/06/27 11:22:45;;;;;;;5.97;5.57;;;31.60;99.90;;;;;;5073239;28;20496;-74
2022/06/27 11:25:14;;;;;;;5.00;4.47;;;31.70;99.90;;;;;;5073678;28;20460;-75
2022/06/27 11:27:48;;;;;;;6.57;5.57;;;31.70;99.90;;;;;;5073695;28;20560;-75
2022/06/27 11:33:16;;;;;;;5.87;5.37;;;31.80;99.90;;;;;;5073193;28;20480;-74
2022/06/27 11:35:42;;;;;;;7.90;5.30;;;31.80;99.90;;;;;;5073080;28;20449;-74
2022/06/27 11:38:10;;;;;;;7.80;5.40;;;31.80;99.90;;;;;;5073478;28;20444;-74
2022/06/27 11:40:38;;;;;;;6.07;5.57;;;31.90;99.90;;;;;;5073676;28;20453;-74
2022/06/27 11:43:05;;;;;;;9.53;7.23;;;32.10;99.90;;;;;;5072980;28;20469;-76
2022/06/27 11:45:40;;;;;;;7.70;6.60;;;32.20;99.90;;;;;;5073002;28;20955;-75
2022/06/27 11:48:14;;;;;;;5.37;4.90;;;32.30;99.90;;;;;;5072986;28;20899;-75
2022/06/27 11:50:41;;;;;;;5.27;4.80;;;32.40;99.90;;;;;;5073268;28;20433;-75
2022/06/27 11:53:08;;;;;;;12.37;5.87;;;32.40;99.90;;;;;;5073271;28;20571;-74
2022/06/27 11:55:35;;;;;;;5.60;4.50;;;32.50;99.90;;;;;;5073232;28;20456;-75
2022/06/27 11:58:03;;;;;;;5.83;5.13;;;32.40;99.90;;;;;;5073280;28;20445;-74
2022/06/27 12:00:31;;;;;;;6.27;5.03;;;32.30;99.90;;;;;;5073289;28;20440;-75
2022/06/27 12:03:07;;;;;;;5.20;4.80;;;32.00;99.90;;;;;;5073062;28;20472;-74
2022/06/27 12:05:34;;;;;;;5.00;4.60;;;31.90;99.90;;;;;;5073495;28;20444;-74
2022/06/27 12:08:03;;;;;;;6.37;5.30;;;31.90;99.90;;;;;;5072769;28;20506;-75
2022/06/27 12:10:41;;;;;;;6.67;4.87;;;31.90;99.90;;;;;;5072605;28;20993;-75
2022/06/27 12:13:11;;;;;;;8.27;5.97;;;31.90;98.80;;;;;;5072953;28;20848;-75
2022/06/27 12:15:40;;;;;;;6.13;5.03;;;31.90;99.90;;;;;;5073051;28;20445;-74
2022/06/27 12:18:09;;;;;;;6.87;5.60;;;31.90;99.90;;;;;;5073024;28;20807;-74
2022/06/27 12:20:36;;;;;;;5.63;5.10;;;32.00;99.90;;;;;;5072880;28;20449;-74
2022/06/27 12:23:03;;;;;;;4.50;4.10;;;32.00;99.90;;;;;;5072825;28;20461;-74
2022/06/27 12:25:30;;;;;;;4.37;4.10;;;32.00;99.90;;;;;;5073253;28;20462;-74
2022/06/27 12:27:57;;;;;;;5.93;5.53;;;32.10;99.90;;;;;;5072879;28;20444;-75
2022/06/27 12:30:25;;;;;;;4.80;4.50;;;32.40;99.90;;;;;;5072535;28;20452;-74
2022/06/27 12:32:52;;;;;;;4.50;4.20;;;32.40;99.90;;;;;;5072732;28;20481;-75
2022/06/27 12:35:19;;;;;;;5.03;4.53;;;32.50;99.90;;;;;;5072645;28;20640;-75
2022/06/27 12:37:46;;;;;;;5.10;4.70;;;32.50;99.20;;;;;;5072920;28;20452;-74
2022/06/27 12:40:13;;;;;;;5.47;5.07;;;32.40;99.90;;;;;;5073089;28;20453;-75
2022/06/27 12:42:40;;;;;;;7.47;5.40;;;32.40;99.90;;;;;;5072500;28;20468;-74
2022/06/27 12:45:08;;;;;;;5.67;5.27;;;32.40;99.90;;;;;;5072722;28;20518;-74
2022/06/27 12:47:36;;;;;;;4.60;4.20;;;32.40;99.90;;;;;;5072914;28;20563;-74